createdAt,value
2018-02-20T00:01:43.023Z,61.65
2018-02-20T00:04:10.638Z,65.97
2018-02-20T00:06:38.205Z,77.50
2018-02-20T00:09:05.765Z,66.22
2018-02-20T00:11:33.379Z,64.78
2018-02-20T00:14:01.770Z,69.68
2018-02-20T00:16:30.187Z,67.57
2018-02-20T00:18:57.753Z,69.10
2018-02-20T00:21:25.380Z,66.35
2018-02-20T00:23:53.019Z,64.47
2018-02-20T00:26:20.671Z,66.78
2018-02-20T00:28:48.252Z,62.22
2018-02-20T00:31:15.883Z,65.43
2018-02-20T00:33:43.457Z,65.57
2018-02-20T00:36:11.038Z,66.80
2018-02-20T00:38:39.426Z,70.00
2018-02-20T00:41:07.797Z,57.85
2018-02-20T00:43:35.378Z,60.17
2018-02-20T00:46:02.991Z,58.85
2018-02-20T00:48:30.564Z,63.20
2018-02-20T00:50:58.179Z,71.40
2018-02-20T00:53:25.786Z,64.05
2018-02-20T00:55:53.376Z,61.05
2018-02-20T00:58:21.768Z,73.00
2018-02-20T01:00:51.386Z,70.37
2018-02-20T01:03:19.009Z,66.43
2018-02-20T01:05:46.594Z,69.72
2018-02-20T01:08:14.971Z,75.40
2018-02-20T01:10:43.346Z,65.22
2018-02-20T01:13:11.677Z,74.53
2018-02-20T01:15:39.277Z,70.12
2018-02-20T01:18:06.874Z,63.05
2018-02-20T01:20:34.447Z,78.78
2018-02-20T01:23:02.051Z,76.00
2018-02-20T01:25:29.621Z,71.35
2018-02-20T01:27:58.026Z,63.08
2018-02-20T01:30:25.633Z,69.85
2018-02-20T01:32:53.214Z,87.65
2018-02-20T01:35:20.840Z,71.03
2018-02-20T01:37:48.418Z,74.40
2018-02-20T01:40:16.030Z,65.25
2018-02-20T01:42:43.621Z,78.85
2018-02-20T01:45:11.256Z,74.75
2018-02-20T01:47:39.609Z,72.20
2018-02-20T01:50:07.226Z,66.50
2018-02-20T01:52:34.792Z,71.15
2018-02-20T01:55:02.440Z,69.70
2018-02-20T01:57:30.011Z,72.10
2018-02-20T01:59:57.619Z,80.62
2018-02-20T02:02:25.196Z,68.55
2018-02-20T02:04:53.609Z,71.68
2018-02-20T02:07:21.211Z,70.65
2018-02-20T02:09:48.777Z,67.47
2018-02-20T02:12:20.207Z,77.25
2018-02-20T02:14:50.057Z,75.22
2018-02-20T02:17:21.760Z,70.37
2018-02-20T02:19:52.545Z,78.62
2018-02-20T02:22:22.889Z,56.92
2018-02-20T02:24:52.068Z,83.62
2018-02-20T02:27:22.422Z,78.35
2018-02-20T02:29:52.942Z,66.35
2018-02-20T02:32:22.814Z,71.03
2018-02-20T02:34:53.241Z,67.50
2018-02-20T02:37:22.962Z,76.93
2018-02-20T02:39:53.577Z,74.60
2018-02-20T02:42:24.084Z,90.90
2018-02-20T02:44:54.942Z,67.87
2018-02-20T02:47:26.300Z,73.20
2018-02-20T02:49:59.144Z,78.40
2018-02-20T02:52:28.764Z,73.87
2018-02-20T02:54:58.633Z,68.18
2018-02-20T02:57:29.067Z,75.37
2018-02-20T02:59:59.324Z,79.25
2018-02-20T03:02:30.181Z,75.78
2018-02-20T03:04:59.856Z,69.75
2018-02-20T03:07:30.529Z,74.82
2018-02-20T03:10:01.759Z,73.82
2018-02-20T03:12:32.415Z,70.85
2018-02-20T03:15:03.065Z,71.45
2018-02-20T03:17:33.938Z,68.93
2018-02-20T03:20:03.618Z,67.35
2018-02-20T03:22:33.472Z,76.35
2018-02-20T03:25:04.152Z,72.40
2018-02-20T03:27:34.571Z,70.53
2018-02-20T03:30:08.349Z,75.47
2018-02-20T03:32:38.193Z,75.20
2018-02-20T03:35:08.170Z,76.03
2018-02-20T03:37:38.028Z,68.37
2018-02-20T03:40:07.480Z,72.20
2018-02-20T03:42:37.453Z,72.55
2018-02-20T03:45:07.198Z,74.62
2018-02-20T03:47:37.936Z,62.53
2018-02-20T03:50:08.297Z,77.28
2018-02-20T03:52:39.192Z,74.65
2018-02-20T03:55:10.513Z,69.28
2018-02-20T03:57:40.342Z,66.30
2018-02-20T04:00:09.909Z,63.97
2018-02-20T04:02:40.610Z,61.75
2018-02-20T04:05:12.283Z,65.20
2018-02-20T04:07:42.203Z,70.47
2018-02-20T04:10:12.636Z,67.62
2018-02-20T04:12:42.531Z,71.80
2018-02-20T04:15:12.221Z,77.45
2018-02-20T04:17:50.280Z,66.03
2018-02-20T04:20:20.180Z,71.07
2018-02-20T04:22:50.873Z,61.85
2018-02-20T04:25:21.545Z,71.40
2018-02-20T04:27:51.332Z,73.82
2018-02-20T04:30:21.938Z,70.47
2018-02-20T04:32:51.548Z,73.72
2018-02-20T04:35:21.168Z,80.97
2018-02-20T04:37:50.990Z,74.07
2018-02-20T04:40:22.740Z,68.60
2018-02-20T04:42:58.033Z,74.55
2018-02-20T04:45:27.560Z,68.78
2018-02-20T04:47:57.385Z,70.07
2018-02-20T04:50:26.885Z,70.70
2018-02-20T04:52:56.904Z,73.47
2018-02-20T04:55:27.723Z,79.50
2018-02-20T04:57:58.293Z,60.42
2018-02-20T05:00:27.773Z,70.97
2018-02-20T05:02:57.355Z,68.78
2018-02-20T05:05:27.048Z,61.25
2018-02-20T05:07:56.631Z,72.55
2018-02-20T05:10:27.229Z,66.05
2018-02-20T05:12:56.667Z,67.62
2018-02-20T05:15:27.008Z,65.35
2018-02-20T05:17:57.687Z,62.00
2018-02-20T05:20:35.471Z,68.55
2018-02-20T05:23:06.601Z,74.30
2018-02-20T05:25:36.235Z,57.88
2018-02-20T05:28:06.042Z,66.90
2018-02-20T05:30:35.648Z,65.25
2018-02-20T05:33:05.408Z,73.20
2018-02-20T05:35:34.967Z,68.37
2018-02-20T05:38:04.881Z,74.37
2018-02-20T05:40:34.736Z,74.70
2018-02-20T05:43:05.083Z,70.18
2018-02-20T05:45:35.549Z,72.05
2018-02-20T05:48:04.592Z,82.60
2018-02-20T05:50:34.533Z,72.40
2018-02-20T05:53:04.745Z,74.35
2018-02-20T05:55:33.996Z,74.87
2018-02-20T05:58:02.261Z,75.85
2018-02-20T06:00:30.751Z,80.80
2018-02-20T06:03:00.374Z,81.72
2018-02-20T06:05:34.292Z,80.87
2018-02-20T06:08:03.671Z,71.68
2018-02-20T06:10:33.215Z,86.00
2018-02-20T06:13:03.889Z,76.87
2018-02-20T06:15:34.327Z,82.25
2018-02-20T06:18:03.829Z,74.47
2018-02-20T06:20:33.021Z,87.78
2018-02-20T06:23:02.619Z,75.07
2018-02-20T06:25:33.386Z,78.57
2018-02-20T06:28:03.033Z,82.53
2018-02-20T06:30:32.507Z,72.80
2018-02-20T06:33:02.209Z,82.65
2018-02-20T06:35:31.698Z,90.22
2018-02-20T06:38:01.235Z,82.70
2018-02-20T06:40:30.795Z,82.80
2018-02-20T06:43:00.509Z,82.28
2018-02-20T06:45:35.340Z,75.62
2018-02-20T06:48:04.207Z,88.72
2018-02-20T06:50:33.124Z,88.07
2018-02-20T06:53:02.611Z,78.15
2018-02-20T06:55:32.853Z,83.22
2018-02-20T06:58:04.344Z,82.32
2018-02-20T07:00:33.704Z,79.15
2018-02-20T07:03:03.925Z,81.10
2018-02-20T07:05:32.983Z,86.07
2018-02-20T07:08:04.388Z,90.45
2018-02-20T07:10:33.015Z,77.93
2018-02-20T07:13:01.638Z,71.70
2018-02-20T07:15:31.517Z,81.82
2018-02-20T07:18:01.331Z,80.62
2018-02-20T07:20:30.822Z,79.70
2018-02-20T07:22:59.967Z,84.05
2018-02-20T07:25:28.204Z,81.47
2018-02-20T07:27:57.727Z,90.35
2018-02-20T07:30:27.150Z,100.45
2018-02-20T07:32:56.119Z,81.35
2018-02-20T07:35:25.705Z,80.45
2018-02-20T07:37:53.286Z,95.10
2018-02-20T07:40:24.931Z,96.45
2018-02-20T07:42:53.632Z,91.35
2018-02-20T07:45:22.352Z,89.55
2018-02-20T07:47:58.310Z,93.03
2018-02-20T07:50:27.646Z,99.18
2018-02-20T07:52:55.719Z,75.22
2018-02-20T07:55:23.416Z,76.45
2018-02-20T07:57:51.652Z,80.38
2018-02-20T08:00:19.266Z,88.03
2018-02-20T08:02:46.880Z,93.12
2018-02-20T08:05:14.569Z,113.05
2018-02-20T08:07:42.268Z,107.90
2018-02-20T08:10:10.640Z,95.95
2018-02-20T08:12:38.198Z,84.65
2018-02-20T08:15:05.762Z,72.00
2018-02-20T08:17:33.358Z,78.53
2018-02-20T08:20:00.929Z,82.12
2018-02-20T08:22:29.201Z,82.32
2018-02-20T08:24:56.781Z,94.03
2018-02-20T08:27:25.231Z,73.82
2018-02-20T08:29:52.856Z,80.07
2018-02-20T08:32:20.518Z,72.72
2018-02-20T08:34:48.188Z,81.63
2018-02-20T08:37:15.800Z,84.43
2018-02-20T08:39:43.446Z,76.60
2018-02-20T08:42:11.093Z,77.03
2018-02-20T08:44:39.467Z,74.18
2018-02-20T08:47:07.878Z,85.57
2018-02-20T08:49:35.520Z,74.97
2018-02-20T08:52:05.714Z,68.50
2018-02-20T08:54:33.342Z,78.32
2018-02-20T08:57:00.966Z,78.85
2018-02-20T08:59:29.296Z,83.12
2018-02-20T09:01:57.031Z,94.70
2018-02-20T09:04:24.632Z,78.20
2018-02-20T09:06:52.294Z,78.55
2018-02-20T09:09:19.907Z,77.32
2018-02-20T09:11:47.557Z,77.37
2018-02-20T09:14:15.986Z,78.25
2018-02-20T09:16:43.592Z,70.30
2018-02-20T09:19:11.927Z,85.70
2018-02-20T09:21:39.499Z,81.12
2018-02-20T09:24:07.196Z,73.18
2018-02-20T09:26:35.536Z,68.78
2018-02-20T09:29:03.132Z,72.15
2018-02-20T09:31:30.723Z,68.65
2018-02-20T09:33:59.107Z,79.25
2018-02-20T09:36:26.687Z,71.10
2018-02-20T09:38:54.246Z,65.78
2018-02-20T09:41:22.248Z,67.15
2018-02-20T09:43:50.016Z,75.07
2018-02-20T09:46:17.681Z,72.03
2018-02-20T09:48:45.275Z,64.62
2018-02-20T09:51:13.709Z,60.55
2018-02-20T09:53:41.421Z,71.20
2018-02-20T09:56:09.852Z,69.80
2018-02-20T09:58:37.463Z,67.80
2018-02-20T10:01:05.062Z,79.87
2018-02-20T10:03:32.620Z,73.50
2018-02-20T10:06:00.806Z,70.95
2018-02-20T10:08:28.410Z,80.65
2018-02-20T10:10:56.789Z,65.72
2018-02-20T10:13:25.187Z,68.72
2018-02-20T10:15:53.901Z,70.85
2018-02-20T10:18:22.396Z,66.72
2018-02-20T10:20:50.005Z,67.68
2018-02-20T10:23:18.423Z,65.90
2018-02-20T10:25:46.625Z,64.22
2018-02-20T10:28:14.996Z,73.97
2018-02-20T10:30:42.628Z,68.65
2018-02-20T10:33:10.348Z,61.50
2018-02-20T10:35:38.690Z,81.82
2018-02-20T10:38:06.256Z,75.35
2018-02-20T10:40:33.875Z,65.12
2018-02-20T10:43:13.560Z,70.28
2018-02-20T10:45:50.031Z,62.40
2018-02-20T10:48:19.876Z,70.95
2018-02-20T10:50:50.185Z,59.88
2018-02-20T10:53:18.397Z,86.70
2018-02-20T10:55:56.911Z,68.00
2018-02-20T10:58:34.280Z,61.92
2018-02-20T11:01:07.584Z,66.20
2018-02-20T11:03:40.294Z,62.72
2018-02-20T11:06:14.503Z,64.53
2018-02-20T11:08:48.179Z,67.32
2018-02-20T11:11:17.669Z,67.82
2018-02-20T11:13:45.317Z,79.12
2018-02-20T11:16:15.785Z,63.15
2018-02-20T11:18:45.016Z,65.18
2018-02-20T11:23:54.603Z,69.93
2018-02-20T11:26:23.950Z,64.35
2018-02-20T11:28:52.826Z,76.45
2018-02-20T11:31:20.906Z,68.90
2018-02-20T11:33:49.251Z,61.10
2018-02-20T11:36:17.595Z,72.05
2018-02-20T11:38:45.913Z,68.05
2018-02-20T11:41:35.926Z,73.82
2018-02-20T11:44:03.646Z,75.43
2018-02-20T11:46:31.257Z,80.75
2018-02-20T11:48:59.914Z,73.62
2018-02-20T11:51:28.422Z,62.28
2018-02-20T11:53:56.893Z,66.97
2018-02-20T11:56:24.540Z,74.50
2018-02-20T11:58:52.193Z,69.05
2018-02-20T12:01:19.842Z,81.03
2018-02-20T12:03:47.449Z,71.15
2018-02-20T12:06:15.093Z,69.22
2018-02-20T12:08:42.766Z,68.65
2018-02-20T12:11:10.353Z,63.22
2018-02-20T12:13:37.980Z,76.28
2018-02-20T12:16:05.667Z,81.28
2018-02-20T12:18:33.254Z,67.07
2018-02-20T12:21:02.394Z,65.10
2018-02-20T12:23:30.157Z,79.78
2018-02-20T12:25:58.735Z,64.90
2018-02-20T12:28:26.540Z,83.07
2018-02-20T12:30:54.173Z,73.78
2018-02-20T12:33:21.860Z,67.15
2018-02-20T12:35:49.516Z,68.65
2018-02-20T12:38:17.128Z,66.45
2018-02-20T12:40:45.746Z,62.42
2018-02-20T12:43:13.403Z,67.30
2018-02-20T12:45:41.009Z,65.78
2018-02-20T12:48:08.631Z,74.75
2018-02-20T12:50:36.391Z,63.17
2018-02-20T12:53:04.145Z,77.80
2018-02-20T12:55:31.744Z,70.82
2018-02-20T12:57:59.513Z,66.70
2018-02-20T13:00:27.126Z,66.93
2018-02-20T13:02:55.572Z,69.47
2018-02-20T13:05:23.164Z,74.20
2018-02-20T13:07:50.957Z,67.18
2018-02-20T13:10:18.585Z,55.90
2018-02-20T13:12:46.340Z,61.20
2018-02-20T13:15:14.739Z,70.20
2018-02-20T13:17:42.360Z,55.42
2018-02-20T13:20:10.121Z,58.20
2018-02-20T13:22:37.711Z,63.35
2018-02-20T13:25:06.078Z,54.58
2018-02-20T13:27:33.721Z,53.03
2018-02-20T13:30:01.362Z,58.83
2018-02-20T13:32:29.024Z,64.18
2018-02-20T13:34:57.966Z,55.53
2018-02-20T13:37:26.679Z,59.15
2018-02-20T13:39:54.571Z,61.80
2018-02-20T13:42:22.189Z,63.17
2018-02-20T13:44:52.008Z,57.90
2018-02-20T13:47:20.190Z,69.40
2018-02-20T13:49:48.422Z,52.70
2018-02-20T13:52:16.072Z,61.83
2018-02-20T13:54:43.658Z,73.53
2018-02-20T13:57:11.351Z,61.10
2018-02-20T13:59:39.033Z,61.15
2018-02-20T14:02:06.744Z,59.78
2018-02-20T14:04:34.355Z,61.35
2018-02-20T14:07:01.929Z,77.20
2018-02-20T14:09:29.721Z,64.35
2018-02-20T14:11:57.296Z,62.97
2018-02-20T14:14:25.797Z,64.47
2018-02-20T14:16:53.372Z,67.28
2018-02-20T14:19:21.012Z,64.87
2018-02-20T14:21:49.524Z,81.78
2018-02-20T14:24:17.215Z,80.40
2018-02-20T14:26:44.876Z,58.13
2018-02-20T14:29:12.541Z,61.92
2018-02-20T14:31:40.806Z,60.12
2018-02-20T14:34:08.437Z,56.00
2018-02-20T14:36:36.813Z,53.55
2018-02-20T14:39:05.207Z,59.60
2018-02-20T14:41:32.872Z,53.97
2018-02-20T14:44:01.326Z,63.25
2018-02-20T14:46:29.164Z,56.58
2018-02-20T14:48:56.758Z,57.58
2018-02-20T14:51:25.161Z,55.67
2018-02-20T14:53:52.944Z,55.12
2018-02-20T14:56:20.584Z,71.45
2018-02-20T14:58:48.249Z,51.58
2018-02-20T15:01:15.814Z,64.62
2018-02-20T15:03:43.393Z,73.60
2018-02-20T15:06:11.088Z,67.40
2018-02-20T15:08:38.719Z,58.83
2018-02-20T15:11:06.350Z,63.10
2018-02-20T15:13:35.593Z,69.82
2018-02-20T15:16:04.210Z,64.68
2018-02-20T15:18:34.873Z,61.00
2018-02-20T15:21:02.885Z,66.45
2018-02-20T15:23:30.482Z,65.82
2018-02-20T15:25:58.768Z,58.78
2018-02-20T15:28:27.224Z,64.43
2018-02-20T15:30:54.992Z,55.40
2018-02-20T15:33:22.581Z,55.05
2018-02-20T15:35:51.001Z,63.35
2018-02-20T15:38:18.737Z,61.22
2018-02-20T15:40:47.094Z,68.07
2018-02-20T15:43:14.701Z,60.60
2018-02-20T15:45:42.301Z,60.70
2018-02-20T15:48:09.923Z,67.80
2018-02-20T15:50:38.782Z,65.35
2018-02-20T15:53:07.231Z,64.82
2018-02-20T15:55:34.866Z,69.68
2018-02-20T15:58:02.449Z,57.00
2018-02-20T16:00:30.117Z,65.60
2018-02-20T16:02:57.738Z,68.97
2018-02-20T16:05:25.394Z,72.07
2018-02-20T16:07:54.944Z,72.85
2018-02-20T16:10:23.169Z,79.25
2018-02-20T16:12:50.868Z,81.68
2018-02-20T16:15:18.634Z,68.25
2018-02-20T16:17:47.084Z,78.62
2018-02-20T16:20:14.648Z,78.68
2018-02-20T16:22:42.275Z,78.65
2018-02-20T16:25:09.884Z,71.87
2018-02-20T16:27:37.578Z,67.25
2018-02-20T16:30:11.916Z,75.97
2018-02-20T16:32:40.849Z,88.82
2018-02-20T16:35:09.012Z,84.20
2018-02-20T16:37:38.072Z,74.07
2018-02-20T16:40:05.708Z,71.25
2018-02-20T16:42:33.725Z,72.05
2018-02-20T16:45:13.997Z,76.93
2018-02-20T16:47:42.237Z,72.10
2018-02-20T16:50:10.120Z,74.68
2018-02-20T16:52:37.746Z,79.93
2018-02-20T16:55:05.391Z,72.65
2018-02-20T16:57:33.045Z,80.45
2018-02-20T17:00:00.745Z,77.00
2018-02-20T17:02:28.329Z,81.40
2018-02-20T17:04:56.758Z,72.97
2018-02-20T17:07:25.204Z,72.62
2018-02-20T17:09:53.593Z,76.55
2018-02-20T17:12:21.205Z,83.60
2018-02-20T17:14:48.891Z,79.68
2018-02-20T17:17:16.491Z,78.78
2018-02-20T17:19:44.448Z,93.62
2018-02-20T17:22:13.695Z,76.78
2018-02-20T17:24:42.042Z,84.68
2018-02-20T17:27:09.823Z,81.05
2018-02-20T17:29:37.442Z,85.85
2018-02-20T17:32:05.099Z,94.97
2018-02-20T17:34:32.725Z,89.80
2018-02-20T17:37:00.326Z,80.80
2018-02-20T17:39:28.004Z,102.78
2018-02-20T17:41:55.586Z,89.62
2018-02-20T17:44:23.204Z,89.65
2018-02-20T17:46:50.781Z,102.95
2018-02-20T17:49:18.414Z,80.75
2018-02-20T17:51:46.077Z,83.57
2018-02-20T17:54:13.689Z,103.12
2018-02-20T17:56:41.321Z,93.20
2018-02-20T17:59:08.945Z,100.32
2018-02-20T18:01:36.520Z,87.65
2018-02-20T18:04:04.135Z,80.47
2018-02-20T18:06:31.739Z,96.53
2018-02-20T18:08:59.368Z,98.68
2018-02-20T18:11:26.956Z,103.12
2018-02-20T18:13:54.613Z,91.68
2018-02-20T18:16:22.184Z,86.12
2018-02-20T18:18:49.787Z,92.90
2018-02-20T18:21:18.209Z,97.00
2018-02-20T18:23:45.865Z,99.13
2018-02-20T18:26:13.458Z,88.15
2018-02-20T18:28:41.056Z,92.53
2018-02-20T18:31:09.494Z,92.07
2018-02-20T18:33:37.062Z,103.82
2018-02-20T18:36:04.730Z,99.47
2018-02-20T18:38:32.446Z,93.57
2018-02-20T18:41:00.083Z,96.35
2018-02-20T18:43:27.815Z,94.78
2018-02-20T18:45:55.400Z,93.18
2018-02-20T18:48:23.811Z,88.78
2018-02-20T18:50:51.386Z,89.75
2018-02-20T18:53:19.522Z,80.12
2018-02-20T18:55:47.929Z,94.80
2018-02-20T18:58:15.503Z,88.87
2018-02-20T19:00:45.988Z,100.93
2018-02-20T19:03:14.323Z,89.20
2018-02-20T19:05:42.059Z,100.72
2018-02-20T19:08:09.653Z,108.90
2018-02-20T19:10:37.294Z,95.95
2018-02-20T19:13:04.850Z,96.57
2018-02-20T19:15:32.473Z,96.72
2018-02-20T19:18:00.140Z,82.88
2018-02-20T19:20:27.796Z,96.70
2018-02-20T19:22:56.160Z,85.15
2018-02-20T19:25:23.776Z,81.35
2018-02-20T19:27:51.421Z,88.07
2018-02-20T19:30:19.803Z,87.75
2018-02-20T19:32:48.157Z,95.28
2018-02-20T19:35:15.806Z,107.70
2018-02-20T19:37:43.374Z,103.15
2018-02-20T19:40:11.711Z,84.28
2018-02-20T19:42:39.324Z,104.18
2018-02-20T19:45:09.169Z,93.18
2018-02-20T19:47:36.882Z,89.75
2018-02-20T19:50:04.444Z,105.20
2018-02-20T19:52:32.819Z,91.95
2018-02-20T19:55:00.686Z,97.68
2018-02-20T19:57:28.327Z,89.62
2018-02-20T19:59:56.127Z,86.43
2018-02-20T20:02:23.916Z,96.35
2018-02-20T20:04:52.284Z,99.25
2018-02-20T20:07:20.309Z,96.53
2018-02-20T20:09:47.894Z,96.93
2018-02-20T20:12:15.472Z,91.07
2018-02-20T20:14:43.109Z,87.07
2018-02-20T20:17:11.352Z,88.40
2018-02-20T20:19:38.969Z,90.28
2018-02-20T20:22:06.766Z,87.97
2018-02-20T20:24:34.419Z,85.72
2018-02-20T20:27:02.107Z,91.37
2018-02-20T20:29:29.718Z,78.37
2018-02-20T20:31:57.303Z,87.05
2018-02-20T20:34:25.689Z,88.60
2018-02-20T20:36:53.275Z,95.53
2018-02-20T20:39:20.886Z,80.93
2018-02-20T20:41:48.498Z,80.22
2018-02-20T20:44:16.123Z,83.55
2018-02-20T20:46:44.600Z,92.45
2018-02-20T20:49:12.500Z,85.10
2018-02-20T20:51:40.130Z,88.60
2018-02-20T20:54:07.720Z,107.45
2018-02-20T20:56:36.077Z,95.87
2018-02-20T20:59:04.675Z,83.10
2018-02-20T21:01:35.260Z,100.87
2018-02-20T21:04:02.874Z,87.68
2018-02-20T21:06:30.489Z,92.10
2018-02-20T21:08:58.158Z,78.37
2018-02-20T21:11:25.725Z,71.62
2018-02-20T21:13:53.338Z,77.47
2018-02-20T21:16:20.922Z,85.78
2018-02-20T21:18:48.546Z,83.62
2018-02-20T21:21:16.934Z,77.82
2018-02-20T21:23:44.558Z,83.45
2018-02-20T21:26:12.138Z,87.43
2018-02-20T21:28:39.775Z,78.65
2018-02-20T21:31:07.359Z,84.53
2018-02-20T21:33:34.993Z,76.07
2018-02-20T21:36:02.570Z,95.95
2018-02-20T21:38:30.934Z,91.57
2018-02-20T21:40:58.570Z,72.70
2018-02-20T21:43:27.883Z,87.80
2018-02-20T21:46:01.174Z,85.30
2018-02-20T21:48:28.836Z,76.60
2018-02-20T21:50:56.924Z,98.82
2018-02-20T21:53:24.601Z,90.78
2018-02-20T21:55:52.194Z,99.87
2018-02-20T21:58:19.761Z,87.55
2018-02-20T22:00:47.369Z,94.45
2018-02-20T22:03:14.989Z,86.60
2018-02-20T22:05:43.370Z,77.05
2018-02-20T22:08:10.946Z,94.22
2018-02-20T22:10:38.554Z,88.90
2018-02-20T22:13:06.900Z,93.40
2018-02-20T22:15:34.527Z,89.10
2018-02-20T22:18:02.093Z,96.50
2018-02-20T22:20:29.664Z,87.43
2018-02-20T22:22:57.281Z,86.70
2018-02-20T22:25:25.641Z,81.18
2018-02-20T22:27:53.241Z,86.80
2018-02-20T22:30:21.576Z,84.95
2018-02-20T22:32:49.184Z,92.85
2018-02-20T22:35:17.518Z,98.03
2018-02-20T22:37:45.133Z,85.90
2018-02-20T22:40:12.691Z,84.37
2018-02-20T22:42:40.305Z,90.53
2018-02-20T22:45:07.920Z,89.93
2018-02-20T22:47:35.506Z,85.15
2018-02-20T22:50:03.101Z,91.40
2018-02-20T22:52:30.691Z,106.78
2018-02-20T22:54:59.067Z,94.85
2018-02-20T22:57:27.398Z,97.25
2018-02-20T22:59:54.965Z,88.03
2018-02-20T23:02:22.586Z,97.25
2018-02-20T23:04:50.308Z,100.90
2018-02-20T23:07:18.673Z,93.53
2018-02-20T23:09:46.277Z,100.72
2018-02-20T23:12:13.881Z,89.40
2018-02-20T23:14:41.490Z,92.12
2018-02-20T23:17:09.861Z,92.07
2018-02-20T23:19:38.200Z,97.62
2018-02-20T23:22:05.797Z,94.75
2018-02-20T23:24:33.378Z,97.05
2018-02-20T23:27:01.735Z,96.95
2018-02-20T23:29:29.358Z,99.72
2018-02-20T23:31:56.927Z,101.87
2018-02-20T23:34:24.543Z,89.80
2018-02-20T23:36:52.885Z,95.05
2018-02-20T23:39:20.557Z,93.05
2018-02-20T23:41:48.139Z,82.53
2018-02-20T23:44:16.505Z,78.03
2018-02-20T23:46:44.107Z,88.00
2018-02-20T23:49:11.740Z,105.25
2018-02-20T23:51:40.371Z,86.93
2018-02-20T23:54:07.980Z,97.50
2018-02-20T23:56:35.579Z,86.95
2018-02-20T23:59:03.190Z,94.20
